Time;durP1;ratioP1;P1;durP2;ratioP2;P2;SDS_P1;SDS_P2;PMS_P1;PMS_P2;Temp;Humidity;BMP_temperature;BMP_pressure;BME280_temperature;BME280_humidity;BME280_pressure;Samples;Min_cycle;Max_cycle;Signal;HPM_P1;HPM_P2
2023/06/02 07:23:14;;;;;;;10.27;4.32;;;;;;;-145.79;48.20;78240.06;5300546;27;20410;-66
2023/06/02 07:25:45;;;;;;;11.52;3.80;;;;;;;-145.79;48.60;78246.41;5285049;28;20432;-66
2023/06/02 07:28:16;;;;;;;10.35;3.15;;;;;;;-145.79;48.46;78257.03;5279831;28;20020;-67
2023/06/02 07:30:48;;;;;;;11.10;3.90;;;;;;;-145.79;48.82;78265.50;5279840;28;20098;-66
2023/06/02 07:33:20;;;;;;;10.75;3.22;;;;;;;-145.79;48.42;78284.56;5291790;28;20028;-66
2023/06/02 07:35:51;;;;;;;8.73;3.13;;;;;;;-145.79;49.62;78214.63;5279516;28;20032;-65
2023/06/02 07:38:24;;;;;;;10.88;3.53;;;;;;;-145.79;48.42;78246.41;5284336;28;20021;-66
2023/06/02 07:40:55;;;;;;;6.38;2.85;;;;;;;-145.79;47.70;78233.69;5283121;28;20096;-65
2023/06/02 07:43:26;;;;;;;9.77;3.33;;;;;;;-145.79;49.41;78212.50;5279360;28;20468;-65
2023/06/02 07:45:57;;;;;;;8.43;3.05;;;;;;;-145.79;49.59;78178.56;5278618;28;20020;-66
2023/06/02 07:48:29;;;;;;;10.50;4.25;;;;;;;-145.79;47.19;78231.56;5278978;28;20108;-66
2023/06/02 07:51:01;;;;;;;15.55;7.47;;;;;;;-145.79;47.80;78206.13;5279025;28;20036;-66
2023/06/02 07:53:32;;;;;;;10.15;4.15;;;;;;;-145.79;48.49;78165.84;5278055;28;20044;-66
2023/06/02 07:56:04;;;;;;;8.05;3.30;;;;;;;-145.79;47.72;78182.81;5290175;28;20070;-65
2023/06/02 07:58:35;;;;;;;10.30;4.05;;;;;;;-145.79;48.45;78199.78;5278867;28;20535;-66
2023/06/02 08:01:07;;;;;;;9.55;3.40;;;;;;;-145.79;48.50;78204.00;5299214;28;20020;-67
2023/06/02 08:03:40;;;;;;;9.55;3.67;;;;;;;-145.79;47.50;78214.63;5299923;28;20099;-67
2023/06/02 08:06:13;;;;;;;7.07;3.55;;;;;;;-145.79;47.64;78208.25;5300038;28;20020;-69
2023/06/02 08:08:45;;;;;;;11.10;4.18;;;;;;;-145.79;49.34;78148.91;5283828;28;20566;-66
2023/06/02 08:11:17;;;;;;;12.63;4.38;;;;;;;-145.79;47.31;78138.28;5283735;28;20501;-65
2023/06/02 08:13:48;;;;;;;7.00;2.97;;;;;;;-145.79;47.07;78110.72;5279830;28;20025;-65
2023/06/02 08:16:20;;;;;;;8.95;3.28;;;;;;;-145.79;48.72;78093.78;5297268;28;20021;-68
2023/06/02 08:18:51;;;;;;;8.27;2.88;;;;;;;-145.79;46.69;78102.25;5280688;28;20028;-66
2023/06/02 08:21:22;;;;;;;7.47;3.28;;;;;;;-145.79;47.10;78089.53;5279695;28;20032;-67
2023/06/02 08:23:53;;;;;;;11.32;3.22;;;;;;;-145.79;45.83;78102.25;5278140;28;20139;-66
2023/06/02 08:26:26;;;;;;;11.02;2.92;;;;;;;-145.79;45.64;78123.44;5278466;28;20020;-66
2023/06/02 08:28:59;;;;;;;11.15;3.10;;;;;;;-145.79;46.76;78112.84;5277835;28;20073;-66
2023/06/02 08:31:30;;;;;;;12.40;3.85;;;;;;;-145.79;47.25;78110.72;5287068;28;20056;-66
2023/06/02 08:34:05;;;;;;;8.88;3.15;;;;;;;-145.79;45.78;78110.72;5267217;28;20045;-66
2023/06/02 08:36:36;;;;;;;10.00;3.60;;;;;;;-145.79;45.86;78100.13;5263762;28;20111;-67
2023/06/02 08:39:07;;;;;;;9.85;3.20;;;;;;;-145.79;46.31;78070.44;5264439;28;20550;-68
2023/06/02 08:41:39;;;;;;;8.13;3.50;;;;;;;-145.79;45.47;78095.91;5280069;28;20064;-66
2023/06/02 08:44:12;;;;;;;7.45;3.25;;;;;;;-145.79;45.62;78102.25;5276236;28;20484;-66
2023/06/02 08:46:48;;;;;;;10.68;3.28;;;;;;;-145.79;45.29;78083.19;5264756;28;20021;-66
2023/06/02 08:49:22;;;;;;;12.30;3.35;;;;;;;-145.79;45.24;78089.53;5263084;28;20058;-66
2023/06/02 08:52:00;;;;;;;10.25;3.58;;;;;;;-145.79;48.14;78059.84;5280666;28;20032;-65
2023/06/02 08:54:33;;;;;;;8.90;2.88;;;;;;;-145.79;46.72;78042.91;5284789;28;20441;-65
2023/06/02 08:57:05;;;;;;;13.82;4.18;;;;;;;-145.79;45.35;78053.50;5263802;28;20017;-65
2023/06/02 09:13:31;;;;;;;11.95;3.45;;;;;;;-145.79;44.86;78015.34;5303473;28;20068;-67
2023/06/02 09:16:03;;;;;;;9.43;3.20;;;;;;;-145.79;44.19;78017.44;5295583;28;20036;-63
2023/06/02 09:18:35;;;;;;;8.88;3.05;;;;;;;-145.79;45.09;78049.25;5289817;28;20377;-63
2023/06/02 09:21:23;;;;;;;12.43;4.55;;;;;;;-145.79;45.11;78047.13;5292196;28;20056;-63
2023/06/02 09:23:56;;;;;;;12.43;4.97;;;;;;;-145.79;44.82;78021.69;5287615;28;20352;-64
2023/06/02 09:26:30;;;;;;;9.40;3.28;;;;;;;-145.79;44.72;78015.34;5288220;28;20024;-64
2023/06/02 09:29:13;;;;;;;9.75;3.17;;;;;;;-145.79;45.20;78017.44;5297818;28;20028;-63
2023/06/02 09:31:46;;;;;;;7.45;3.20;;;;;;;-145.79;44.49;78019.56;5304103;28;20439;-64
2023/06/02 09:34:19;;;;;;;13.45;4.43;;;;;;;-145.79;44.55;78032.28;5303967;28;20028;-64
2023/06/02 09:36:52;;;;;;;9.95;3.67;;;;;;;-145.79;44.37;78019.56;5284978;28;20024;-64
2023/06/02 09:39:57;;;;;;;7.55;3.78;;;;;;;-145.79;45.70;77962.34;5287738;28;20027;-64
2023/06/02 09:42:44;;;;;;;8.23;3.58;;;;;;;-145.79;43.80;77936.91;5298305;28;20032;-64
2023/06/02 09:45:15;;;;;;;9.45;3.78;;;;;;;-145.79;43.90;77915.69;5303210;28;20024;-63
2023/06/02 09:47:47;;;;;;;14.43;3.75;;;;;;;-145.79;43.61;77922.06;5303455;28;20012;-64
2023/06/02 09:50:38;;;;;;;9.25;3.78;;;;;;;-145.79;43.31;77898.75;5300575;28;20356;-63
2023/06/02 09:53:14;;;;;;;11.15;3.45;;;;;;;-145.79;43.67;77896.63;5283237;28;20021;-64
2023/06/02 09:55:48;;;;;;;11.70;3.95;;;;;;;-145.79;43.75;77856.34;5286814;28;20028;-64
2023/06/02 09:58:19;;;;;;;5.63;3.20;;;;;;;-145.79;43.54;77822.41;5295965;28;20446;-63
2023/06/02 10:00:51;;;;;;;9.73;3.70;;;;;;;-145.79;43.07;77835.13;5301288;28;20107;-63
2023/06/02 10:03:22;;;;;;;9.20;3.55;;;;;;;-145.79;42.59;77839.38;5300981;28;20070;-64
2023/06/02 10:06:11;;;;;;;7.93;3.35;;;;;;;-145.79;42.92;77820.31;5301720;28;20426;-64
2023/06/02 10:09:03;;;;;;;11.20;3.80;;;;;;;-145.79;42.73;77805.47;5303685;28;20126;-64
2023/06/02 10:11:46;;;;;;;8.13;3.13;;;;;;;-145.79;42.44;77837.25;5296353;28;20085;-64
2023/06/02 10:14:36;;;;;;;8.40;3.47;;;;;;;-145.79;42.31;77796.97;5296025;28;20039;-64
2023/06/02 10:17:30;;;;;;;8.98;3.72;;;;;;;-145.79;42.29;77780.03;5302556;28;20442;-64
2023/06/02 10:20:18;;;;;;;9.68;3.20;;;;;;;-145.79;42.79;77769.44;5302847;28;20032;-64
2023/06/02 10:23:14;;;;;;;9.80;3.40;;;;;;;-145.79;42.51;77758.81;5303695;28;20062;-64
2023/06/02 10:26:05;;;;;;;8.45;3.20;;;;;;;-145.79;43.01;77756.72;5291700;28;20032;-64
2023/06/02 10:28:36;;;;;;;11.95;3.92;;;;;;;-145.79;43.09;77771.53;5282195;28;20410;-64
2023/06/02 10:31:11;;;;;;;10.13;3.20;;;;;;;-145.79;42.61;77796.97;5282631;28;20031;-67
2023/06/02 10:33:47;;;;;;;14.65;4.20;;;;;;;-145.79;43.11;77777.91;5293900;28;20106;-64
2023/06/02 10:36:19;;;;;;;6.45;3.38;;;;;;;-145.79;42.90;77763.06;5284970;28;20048;-63
2023/06/02 10:38:55;;;;;;;14.68;5.15;;;;;;;-145.79;42.67;77746.09;5293086;28;20585;-65
2023/06/02 10:42:04;;;;;;;10.48;4.32;;;;;;;-145.79;43.23;77756.72;5302593;28;20084;-64
2023/06/02 10:44:36;;;;;;;7.78;3.88;;;;;;;-145.79;42.74;77794.88;5283582;28;20039;-64
2023/06/02 10:47:19;;;;;;;9.05;5.10;;;;;;;-145.79;43.15;77758.81;5287521;28;20107;-65
2023/06/02 10:49:59;;;;;;;9.70;4.75;;;;;;;-145.79;43.49;77754.59;5294382;28;20031;-65
2023/06/02 10:52:55;;;;;;;8.68;3.95;;;;;;;-145.79;43.57;77758.81;5303526;28;20479;-65
2023/06/02 10:55:27;;;;;;;7.85;4.70;;;;;;;-145.79;42.98;77780.03;5299332;28;20483;-64
2023/06/02 10:58:03;;;;;;;8.20;4.00;;;;;;;-145.79;43.60;77796.97;5302568;28;20016;-65
2023/06/02 11:00:39;;;;;;;10.38;4.22;;;;;;;-145.79;43.72;77773.66;5301942;28;20020;-64
2023/06/02 11:03:11;;;;;;;6.38;3.70;;;;;;;-145.79;43.54;77727.03;5290083;28;20059;-65
2023/06/02 11:05:43;;;;;;;8.95;3.85;;;;;;;-145.79;43.36;77744.00;5282191;28;20045;-65
2023/06/02 11:08:14;;;;;;;8.98;3.78;;;;;;;-145.79;43.41;77760.94;5289321;28;20028;-65
2023/06/02 11:10:58;;;;;;;6.90;3.63;;;;;;;-145.79;43.71;77746.09;5302811;28;20108;-65
2023/06/02 11:13:30;;;;;;;6.80;4.25;;;;;;;-145.79;43.78;77733.38;5303496;28;20383;-66
2023/06/02 11:16:06;;;;;;;6.72;3.70;;;;;;;-145.79;43.79;77707.94;5301263;28;20028;-65
2023/06/02 11:18:37;;;;;;;11.63;4.53;;;;;;;-145.79;43.59;77701.59;5296739;28;20032;-65
2023/06/02 11:21:17;;;;;;;8.10;3.97;;;;;;;-145.79;43.68;77669.78;5273039;28;20098;-65
2023/06/02 11:23:49;;;;;;;8.07;3.40;;;;;;;-145.79;43.60;77659.19;5281568;28;20275;-66
2023/06/02 11:26:23;;;;;;;9.20;4.18;;;;;;;-145.79;43.42;77665.56;5266321;28;20025;-65
2023/06/02 11:28:55;;;;;;;10.43;4.43;;;;;;;-145.79;43.45;77699.47;5286588;28;20490;-64
2023/06/02 11:31:27;;;;;;;9.85;4.88;;;;;;;-145.79;43.65;77695.22;5290215;28;20024;-65
2023/06/02 11:33:58;;;;;;;10.40;5.22;;;;;;;-145.79;43.94;77682.50;5281924;28;20371;-65
2023/06/02 11:36:34;;;;;;;7.88;4.43;;;;;;;-145.79;44.06;77695.22;5283791;28;20028;-64
2023/06/02 11:39:08;;;;;;;10.88;3.88;;;;;;;-145.79;43.73;77691.00;5282134;28;20460;-64
2023/06/02 11:41:39;;;;;;;10.35;4.63;;;;;;;-145.79;43.93;77710.06;5279700;28;20025;-64
2023/06/02 11:44:13;;;;;;;10.48;4.07;;;;;;;-145.79;44.67;77720.66;5279304;28;20395;-64
2023/06/02 11:46:45;;;;;;;11.35;5.20;;;;;;;-145.79;44.68;77716.44;5298695;28;20422;-64
2023/06/02 11:49:17;;;;;;;9.85;4.10;;;;;;;-145.79;44.25;77705.84;5286821;28;20028;-64
2023/06/02 11:51:48;;;;;;;11.27;3.65;;;;;;;-145.79;44.35;77659.19;5300207;28;20035;-64
2023/06/02 11:54:19;;;;;;;10.77;4.20;;;;;;;-145.79;43.98;77697.34;5290561;28;20118;-64
2023/06/02 11:56:52;;;;;;;11.70;4.30;;;;;;;-145.79;43.82;77642.25;5301021;28;20074;-64
2023/06/02 11:59:23;;;;;;;7.10;4.47;;;;;;;-145.79;43.51;77631.63;5301933;28;20027;-64
2023/06/02 12:01:55;;;;;;;6.85;3.58;;;;;;;-145.79;43.43;77616.81;5302463;28;20035;-64
2023/06/02 12:04:26;;;;;;;8.82;3.63;;;;;;;-145.79;43.62;77608.31;5295639;28;20112;-64
2023/06/02 12:06:57;;;;;;;12.65;5.03;;;;;;;-145.79;43.45;77648.59;5300145;28;20024;-64
2023/06/02 12:09:29;;;;;;;8.32;3.97;;;;;;;-145.79;44.02;77680.38;5304918;28;20051;-63
2023/06/02 12:12:10;;;;;;;11.75;4.20;;;;;;;-145.79;44.26;77661.31;5286272;28;20043;-64
2023/06/02 12:14:41;;;;;;;11.45;4.25;;;;;;;-145.79;43.82;77635.88;5295614;28;20120;-65
2023/06/02 12:17:15;;;;;;;7.95;4.30;;;;;;;-145.79;43.17;77593.47;5306627;28;20059;-69
2023/06/02 12:19:57;;;;;;;10.50;4.40;;;;;;;-145.79;43.31;77601.97;5306162;28;20455;-70
2023/06/02 12:22:28;;;;;;;12.75;4.82;;;;;;;-145.79;43.35;77576.53;5306278;28;20399;-67
2023/06/02 12:25:12;;;;;;;7.80;5.03;;;;;;;-145.79;42.92;77538.38;5305509;28;20024;-65
2023/06/02 12:27:44;;;;;;;12.65;5.07;;;;;;;-145.79;42.89;77529.88;5296377;28;20028;-65
2023/06/02 12:30:15;;;;;;;12.25;5.20;;;;;;;-145.79;42.62;77557.44;5285781;28;20032;-65
2023/06/02 12:32:47;;;;;;;8.55;4.80;;;;;;;-145.79;42.94;77580.75;5268539;28;20102;-64
2023/06/02 12:35:18;;;;;;;8.63;4.95;;;;;;;-145.79;43.81;77563.81;5305252;28;20840;-65
2023/06/02 12:37:50;;;;;;;17.25;4.45;;;;;;;-145.79;43.13;77559.56;5306118;28;20091;-63
2023/06/02 12:40:21;;;;;;;8.93;4.80;;;;;;;-145.79;43.01;77548.97;5304207;28;20028;-65
2023/06/02 12:42:52;;;;;;;15.68;6.45;;;;;;;-145.79;43.13;77529.88;5303132;28;20135;-63
2023/06/02 12:45:23;;;;;;;9.18;4.47;;;;;;;-145.79;43.06;77546.84;5291033;28;20063;-64
2023/06/02 12:47:57;;;;;;;11.95;4.25;;;;;;;-145.79;42.98;77519.28;5283735;28;20052;-64
2023/06/02 12:50:29;;;;;;;10.02;4.97;;;;;;;-145.79;42.54;77504.47;5294882;28;20195;-64
2023/06/02 12:53:00;;;;;;;9.15;4.90;;;;;;;-145.79;42.44;77500.22;5301821;28;20111;-65
2023/06/02 12:55:35;;;;;;;11.07;4.80;;;;;;;-145.79;42.76;77459.94;5295764;28;20081;-65
2023/06/02 12:58:06;;;;;;;14.32;6.72;;;;;;;-145.79;42.48;77470.53;5296637;28;20038;-65
2023/06/02 13:00:39;;;;;;;11.18;4.82;;;;;;;-145.79;42.32;77500.22;5284933;28;20448;-65
2023/06/02 13:03:11;;;;;;;11.25;5.50;;;;;;;-145.79;42.67;77455.69;5283532;28;20103;-65
2023/06/02 13:06:04;;;;;;;10.75;4.25;;;;;;;-145.79;42.14;77430.25;5284936;28;20020;-65
2023/06/02 13:08:38;;;;;;;13.07;5.22;;;;;;;-145.79;42.26;77453.59;5296676;28;20118;-66
2023/06/02 13:11:10;;;;;;;7.93;4.93;;;;;;;-145.79;42.57;77481.13;5283882;28;20032;-65
2023/06/02 13:13:42;;;;;;;14.18;5.88;;;;;;;-145.79;42.71;77442.97;5284557;28;20287;-65
2023/06/02 13:16:13;;;;;;;10.27;4.72;;;;;;;-145.79;42.32;77411.19;5284217;28;20039;-65
2023/06/02 13:18:47;;;;;;;10.88;4.78;;;;;;;-145.79;41.70;77362.44;5285871;28;20056;-65
2023/06/02 13:21:18;;;;;;;12.00;5.57;;;;;;;-145.79;41.26;77356.06;5290229;28;20046;-65
2023/06/02 13:23:53;;;;;;;10.77;4.68;;;;;;;-145.79;41.70;77394.22;5283439;28;20020;-66
2023/06/02 13:26:26;;;;;;;12.43;4.68;;;;;;;-145.79;42.08;77434.50;5298272;28;20031;-65
2023/06/02 13:28:57;;;;;;;14.52;5.03;;;;;;;-145.79;42.35;77434.50;5293623;28;20021;-65
2023/06/02 13:31:28;;;;;;;10.45;6.03;;;;;;;-145.79;42.07;77419.66;5300609;28;20035;-65
2023/06/02 13:33:59;;;;;;;13.50;5.90;;;;;;;-145.79;41.95;77415.44;5303638;28;20103;-65
2023/06/02 13:36:31;;;;;;;10.40;5.50;;;;;;;-145.79;41.58;77398.47;5289488;28;20061;-65
2023/06/02 13:39:02;;;;;;;6.35;4.45;;;;;;;-145.79;41.61;77356.06;5291506;28;20059;-65
2023/06/02 13:41:34;;;;;;;11.15;5.53;;;;;;;-145.79;41.15;77366.69;5305118;28;20028;-65
2023/06/02 13:44:09;;;;;;;11.88;6.28;;;;;;;-145.79;41.31;77373.03;5303951;28;20024;-65
2023/06/02 13:46:40;;;;;;;10.05;4.80;;;;;;;-145.79;41.52;77339.13;5305000;28;20070;-65
2023/06/02 13:49:19;;;;;;;12.60;4.72;;;;;;;-145.79;41.03;77326.41;5293461;28;20027;-67
2023/06/02 13:51:51;;;;;;;7.63;4.43;;;;;;;-145.79;40.60;77317.94;5280604;28;20052;-65
2023/06/02 13:54:22;;;;;;;6.88;4.40;;;;;;;-145.79;40.28;77339.13;5287265;28;20056;-65
2023/06/02 13:56:53;;;;;;;8.70;4.28;;;;;;;-145.79;40.67;77296.72;5304485;28;20499;-65
2023/06/02 13:59:25;;;;;;;9.40;4.72;;;;;;;-145.79;40.89;77300.97;5303825;28;20027;-65
2023/06/02 14:01:57;;;;;;;8.63;4.45;;;;;;;-145.79;41.02;77341.25;5304860;28;20355;-65
2023/06/02 14:04:29;;;;;;;8.40;5.10;;;;;;;-145.79;41.12;77351.84;5293939;28;20062;-66
2023/06/02 14:07:00;;;;;;;10.57;5.95;;;;;;;-145.79;40.73;77326.41;5288731;28;20032;-65
2023/06/02 14:09:31;;;;;;;10.52;5.32;;;;;;;-145.79;40.93;77322.16;5296778;28;20438;-65
2023/06/02 14:12:03;;;;;;;13.88;4.30;;;;;;;-145.79;41.16;77296.72;5283512;28;20048;-66
2023/06/02 14:14:34;;;;;;;9.75;4.45;;;;;;;-145.79;40.67;77288.25;5282328;28;20082;-66
2023/06/02 14:17:06;;;;;;;10.48;4.65;;;;;;;-145.79;40.17;77313.69;5283320;28;20025;-66
2023/06/02 14:19:37;;;;;;;27.25;21.80;;;;;;;-145.79;40.48;77275.53;5282546;28;20034;-66
2023/06/02 14:22:09;;;;;;;11.55;5.90;;;;;;;-145.79;39.84;77258.56;5282241;28;20094;-66
2023/06/02 14:24:40;;;;;;;10.10;5.40;;;;;;;-145.79;40.00;77264.94;5294879;28;20016;-66
2023/06/02 14:27:11;;;;;;;12.73;5.28;;;;;;;-145.79;40.21;77233.16;5285277;28;20065;-67
2023/06/02 14:29:43;;;;;;;10.15;4.82;;;;;;;-145.79;40.40;77231.03;5293422;28;20471;-66
2023/06/02 14:32:14;;;;;;;9.48;4.78;;;;;;;-145.79;40.29;77239.50;5303554;28;20047;-66
2023/06/02 14:34:45;;;;;;;12.70;5.30;;;;;;;-145.79;39.66;77237.38;5294767;28;20028;-66
2023/06/02 14:37:17;;;;;;;7.68;4.85;;;;;;;-145.79;39.67;77233.16;5285414;28;20036;-66
2023/06/02 14:39:48;;;;;;;6.88;4.35;;;;;;;-145.79;39.25;77173.78;5286408;28;20034;-64
2023/06/02 14:42:19;;;;;;;8.23;5.40;;;;;;;-145.79;39.07;77163.19;5285545;28;20044;-65
2023/06/02 14:44:50;;;;;;;11.95;5.07;;;;;;;-145.79;39.52;77122.94;5286178;28;20105;-66
2023/06/02 14:47:25;;;;;;;12.07;6.85;;;;;;;-145.79;39.48;77205.59;5281670;28;20463;-66
2023/06/02 14:49:56;;;;;;;12.52;6.00;;;;;;;-145.79;39.98;77197.09;5282617;28;20056;-65
2023/06/02 14:52:27;;;;;;;13.05;5.80;;;;;;;-145.79;39.64;77173.78;5282529;28;20485;-65
2023/06/02 14:55:10;;;;;;;18.70;12.15;;;;;;;-145.79;39.73;77228.91;5299671;28;20028;-64
2023/06/02 14:57:42;;;;;;;13.27;7.80;;;;;;;-145.79;40.13;77209.81;5297004;28;20024;-64
2023/06/02 15:00:14;;;;;;;11.63;5.18;;;;;;;-145.79;39.80;77228.91;5267382;28;20112;-64
2023/06/02 15:02:47;;;;;;;10.32;5.10;;;;;;;-145.79;39.93;77203.47;5301699;28;20394;-65
2023/06/02 15:05:18;;;;;;;10.60;5.45;;;;;;;-145.79;39.66;77197.09;5300466;28;20039;-65
2023/06/02 15:07:49;;;;;;;12.02;4.90;;;;;;;-145.79;39.31;77182.28;5302968;28;20024;-65
2023/06/02 15:10:21;;;;;;;12.10;5.10;;;;;;;-145.79;39.50;77169.56;5285710;28;20020;-65
2023/06/02 15:12:52;;;;;;;11.63;5.38;;;;;;;-145.79;39.79;77178.03;5282280;28;20032;-65
2023/06/02 15:15:24;;;;;;;16.25;5.50;;;;;;;-145.79;39.99;77203.47;5288153;28;20479;-65
2023/06/02 15:17:55;;;;;;;9.95;4.78;;;;;;;-145.79;40.06;77211.94;5295610;28;20122;-64
2023/06/02 15:20:27;;;;;;;8.73;4.45;;;;;;;-145.79;40.01;77182.28;5303291;28;20024;-66
2023/06/02 15:22:58;;;;;;;7.78;4.50;;;;;;;-145.79;39.80;77173.78;5293009;28;20060;-66
2023/06/02 15:25:29;;;;;;;10.60;4.85;;;;;;;-145.79;39.74;77180.16;5294065;28;20041;-65
2023/06/02 15:28:00;;;;;;;8.43;4.55;;;;;;;-145.79;39.89;77190.75;5282183;28;20020;-65
2023/06/02 15:30:34;;;;;;;11.75;5.32;;;;;;;-145.79;39.78;77214.06;5281629;28;20021;-66
2023/06/02 15:33:05;;;;;;;9.13;4.15;;;;;;;-145.79;39.66;77186.50;5297553;28;20031;-63
2023/06/02 15:35:36;;;;;;;8.60;4.57;;;;;;;-145.79;39.18;77180.16;5287272;28;20020;-65
2023/06/02 15:38:08;;;;;;;9.02;5.35;;;;;;;-145.79;40.06;77192.88;5281422;28;20086;-65
2023/06/02 15:40:39;;;;;;;10.02;4.72;;;;;;;-145.79;40.25;77169.56;5288913;28;20028;-64
2023/06/02 15:43:10;;;;;;;9.63;4.22;;;;;;;-145.79;40.30;77152.59;5303821;28;20982;-64
2023/06/02 15:45:42;;;;;;;8.60;4.57;;;;;;;-145.79;40.17;77152.59;5306949;28;20030;-64
2023/06/02 15:48:13;;;;;;;11.35;4.93;;;;;;;-145.79;39.64;77180.16;5306598;28;20085;-64
2023/06/02 15:50:45;;;;;;;11.35;4.05;;;;;;;-145.79;39.84;77188.63;5281299;28;20016;-64
2023/06/02 15:53:16;;;;;;;8.48;4.10;;;;;;;-145.79;40.20;77173.78;5285902;28;20494;-65
2023/06/02 15:55:47;;;;;;;10.10;4.72;;;;;;;-145.79;40.00;77173.78;5299703;28;20023;-66
2023/06/02 15:58:19;;;;;;;9.73;4.68;;;;;;;-145.79;39.94;77173.78;5306007;28;20035;-65
2023/06/02 16:00:50;;;;;;;7.80;4.78;;;;;;;-145.79;39.68;77180.16;5306377;28;20020;-65
2023/06/02 16:03:21;;;;;;;10.88;4.95;;;;;;;-145.79;39.95;77142.00;5306450;28;20058;-65
2023/06/02 16:05:52;;;;;;;16.20;6.80;;;;;;;-145.79;39.83;77182.28;5305366;28;20032;-66
2023/06/02 16:08:24;;;;;;;12.90;6.63;;;;;;;-145.79;39.98;77146.25;5300480;28;20017;-65
2023/06/02 16:10:55;;;;;;;9.45;3.80;;;;;;;-145.79;39.70;77205.59;5294931;28;20453;-66
2023/06/02 16:13:27;;;;;;;6.55;4.13;;;;;;;-145.79;39.47;77180.16;5305902;28;20028;-65
2023/06/02 16:15:58;;;;;;;9.00;4.32;;;;;;;-145.79;39.67;77182.28;5299626;28;20365;-65
2023/06/02 16:18:29;;;;;;;9.82;5.35;;;;;;;-145.79;40.09;77154.72;5285488;28;20020;-65
2023/06/02 16:21:01;;;;;;;8.10;4.07;;;;;;;-145.79;39.33;77152.59;5293749;28;20024;-66
2023/06/02 16:23:32;;;;;;;10.60;4.40;;;;;;;-145.79;40.07;77133.53;5293537;28;20031;-65
2023/06/02 16:26:04;;;;;;;8.93;4.22;;;;;;;-145.79;39.38;77144.13;5285537;28;20135;-66
2023/06/02 16:28:36;;;;;;;8.23;3.83;;;;;;;-145.79;39.79;77133.53;5285444;28;20037;-65
2023/06/02 16:31:08;;;;;;;8.10;3.88;;;;;;;-145.79;39.64;77116.56;5294579;28;20028;-65
2023/06/02 16:33:39;;;;;;;11.15;4.85;;;;;;;-145.79;38.66;77144.13;5305843;28;20024;-65
2023/06/02 16:36:10;;;;;;;7.30;3.70;;;;;;;-145.79;39.01;77137.75;5306848;28;20020;-65
2023/06/02 16:38:42;;;;;;;6.25;3.80;;;;;;;-145.79;38.87;77114.44;5305745;28;20451;-65
2023/06/02 16:41:13;;;;;;;9.43;3.97;;;;;;;-145.79;38.55;77097.50;5304344;28;20024;-65
2023/06/02 16:43:44;;;;;;;10.63;4.43;;;;;;;-145.79;38.01;77108.09;5288128;28;20549;-65
2023/06/02 16:46:16;;;;;;;6.13;3.65;;;;;;;-145.79;38.58;77097.50;5285297;28;20043;-65
2023/06/02 16:48:47;;;;;;;10.43;3.78;;;;;;;-145.79;38.64;77086.91;5291772;28;20497;-65
2023/06/02 16:51:21;;;;;;;12.18;4.70;;;;;;;-145.79;37.69;77108.09;5294520;28;20028;-65
2023/06/02 16:53:52;;;;;;;7.93;3.75;;;;;;;-145.79;37.72;77089.00;5291118;28;20029;-65
